sensor_id;sensor_type;location;lat;lon;timestamp;P1;durP1;ratioP1;P2;durP2;ratioP2
23242;SDS011;11790;49.578;11.214;2023-03-24T00:03:21;7.15;;;3.97;;
23242;SDS011;11790;49.578;11.214;2023-03-24T00:08:24;6.15;;;3.60;;
23242;SDS011;11790;49.578;11.214;2023-03-24T00:13:24;5.90;;;3.67;;
23242;SDS011;11790;49.578;11.214;2023-03-24T00:18:24;5.82;;;3.45;;
23242;SDS011;11790;49.578;11.214;2023-03-24T00:23:25;6.78;;;3.97;;
23242;SDS011;11790;49.578;11.214;2023-03-24T00:28:27;8.18;;;3.90;;
23242;SDS011;11790;49.578;11.214;2023-03-24T00:33:28;8.20;;;3.78;;
23242;SDS011;11790;49.578;11.214;2023-03-24T00:38:32;6.07;;;3.60;;
23242;SDS011;11790;49.578;11.214;2023-03-24T00:43:33;6.32;;;3.55;;
23242;SDS011;11790;49.578;11.214;2023-03-24T00:48:34;5.57;;;3.45;;
23242;SDS011;11790;49.578;11.214;2023-03-24T00:53:34;4.93;;;3.20;;
23242;SDS011;11790;49.578;11.214;2023-03-24T00:58:34;6.30;;;3.72;;
23242;SDS011;11790;49.578;11.214;2023-03-24T01:03:34;7.00;;;3.50;;
23242;SDS011;11790;49.578;11.214;2023-03-24T01:08:42;6.22;;;3.80;;
23242;SDS011;11790;49.578;11.214;2023-03-24T01:13:42;6.63;;;3.33;;
23242;SDS011;11790;49.578;11.214;2023-03-24T01:18:43;4.75;;;3.00;;
23242;SDS011;11790;49.578;11.214;2023-03-24T01:23:43;5.72;;;3.30;;
23242;SDS011;11790;49.578;11.214;2023-03-24T01:28:43;8.25;;;3.40;;
23242;SDS011;11790;49.578;11.214;2023-03-24T01:33:43;5.95;;;3.30;;
23242;SDS011;11790;49.578;11.214;2023-03-24T01:38:44;5.13;;;3.20;;
23242;SDS011;11790;49.578;11.214;2023-03-24T01:43:44;6.05;;;3.58;;
23242;SDS011;11790;49.578;11.214;2023-03-24T01:58:58;6.32;;;3.78;;
23242;SDS011;11790;49.578;11.214;2023-03-24T02:03:59;4.38;;;3.20;;
23242;SDS011;11790;49.578;11.214;2023-03-24T02:09:02;6.18;;;3.55;;
23242;SDS011;11790;49.578;11.214;2023-03-24T02:14:03;7.45;;;4.10;;
23242;SDS011;11790;49.578;11.214;2023-03-24T02:29:50;11.25;;;3.83;;
23242;SDS011;11790;49.578;11.214;2023-03-24T02:45:34;7.13;;;3.45;;
23242;SDS011;11790;49.578;11.214;2023-03-24T02:50:38;5.28;;;3.70;;
23242;SDS011;11790;49.578;11.214;2023-03-24T02:55:42;8.05;;;4.20;;
23242;SDS011;11790;49.578;11.214;2023-03-24T03:05:48;7.65;;;3.70;;
23242;SDS011;11790;49.578;11.214;2023-03-24T03:10:50;7.82;;;3.88;;
23242;SDS011;11790;49.578;11.214;2023-03-24T03:15:53;6.97;;;3.90;;
23242;SDS011;11790;49.578;11.214;2023-03-24T03:20:55;5.93;;;3.70;;
23242;SDS011;11790;49.578;11.214;2023-03-24T03:25:57;9.18;;;3.80;;
23242;SDS011;11790;49.578;11.214;2023-03-24T03:31:05;5.68;;;3.35;;
23242;SDS011;11790;49.578;11.214;2023-03-24T03:36:17;5.82;;;3.40;;
23242;SDS011;11790;49.578;11.214;2023-03-24T03:41:19;6.18;;;3.50;;
23242;SDS011;11790;49.578;11.214;2023-03-24T03:46:20;6.83;;;3.50;;
23242;SDS011;11790;49.578;11.214;2023-03-24T03:51:20;6.70;;;3.85;;
23242;SDS011;11790;49.578;11.214;2023-03-24T03:56:22;4.97;;;3.20;;
23242;SDS011;11790;49.578;11.214;2023-03-24T04:01:25;5.47;;;3.38;;
23242;SDS011;11790;49.578;11.214;2023-03-24T04:32:28;4.43;;;3.08;;
23242;SDS011;11790;49.578;11.214;2023-03-24T04:37:32;5.78;;;3.63;;
23242;SDS011;11790;49.578;11.214;2023-03-24T04:42:38;5.93;;;3.38;;
23242;SDS011;11790;49.578;11.214;2023-03-24T04:47:42;5.05;;;3.22;;
23242;SDS011;11790;49.578;11.214;2023-03-24T04:52:42;5.05;;;3.47;;
23242;SDS011;11790;49.578;11.214;2023-03-24T04:57:43;5.35;;;3.35;;
23242;SDS011;11790;49.578;11.214;2023-03-24T05:02:43;4.65;;;3.30;;
23242;SDS011;11790;49.578;11.214;2023-03-24T05:07:44;5.53;;;3.58;;
23242;SDS011;11790;49.578;11.214;2023-03-24T05:12:44;4.70;;;3.35;;
23242;SDS011;11790;49.578;11.214;2023-03-24T05:17:44;6.77;;;3.50;;
23242;SDS011;11790;49.578;11.214;2023-03-24T05:22:45;5.15;;;3.50;;
23242;SDS011;11790;49.578;11.214;2023-03-24T05:27:46;6.60;;;3.47;;
23242;SDS011;11790;49.578;11.214;2023-03-24T05:32:46;6.82;;;3.30;;
23242;SDS011;11790;49.578;11.214;2023-03-24T05:37:46;6.57;;;3.10;;
23242;SDS011;11790;49.578;11.214;2023-03-24T05:42:49;5.38;;;3.50;;
23242;SDS011;11790;49.578;11.214;2023-03-24T05:47:50;5.45;;;3.22;;
23242;SDS011;11790;49.578;11.214;2023-03-24T05:52:50;4.72;;;2.65;;
23242;SDS011;11790;49.578;11.214;2023-03-24T05:57:51;4.55;;;2.85;;
23242;SDS011;11790;49.578;11.214;2023-03-24T06:02:52;4.43;;;3.03;;
23242;SDS011;11790;49.578;11.214;2023-03-24T06:07:54;4.32;;;2.67;;
23242;SDS011;11790;49.578;11.214;2023-03-24T06:12:57;4.88;;;3.10;;
23242;SDS011;11790;49.578;11.214;2023-03-24T06:17:57;5.10;;;3.00;;
23242;SDS011;11790;49.578;11.214;2023-03-24T06:22:59;5.13;;;3.00;;
23242;SDS011;11790;49.578;11.214;2023-03-24T06:28:01;5.10;;;3.08;;
23242;SDS011;11790;49.578;11.214;2023-03-24T06:33:03;4.47;;;2.92;;
23242;SDS011;11790;49.578;11.214;2023-03-24T06:38:03;4.47;;;2.90;;
23242;SDS011;11790;49.578;11.214;2023-03-24T06:43:03;6.07;;;4.13;;
23242;SDS011;11790;49.578;11.214;2023-03-24T06:48:04;5.75;;;2.95;;
23242;SDS011;11790;49.578;11.214;2023-03-24T06:53:04;4.93;;;3.17;;
23242;SDS011;11790;49.578;11.214;2023-03-24T06:58:05;10.63;;;5.23;;
23242;SDS011;11790;49.578;11.214;2023-03-24T07:03:05;15.55;;;7.30;;
23242;SDS011;11790;49.578;11.214;2023-03-24T07:08:06;11.25;;;5.88;;
23242;SDS011;11790;49.578;11.214;2023-03-24T07:13:07;6.45;;;4.03;;
23242;SDS011;11790;49.578;11.214;2023-03-24T07:18:07;7.57;;;4.00;;
23242;SDS011;11790;49.578;11.214;2023-03-24T07:23:07;5.63;;;3.30;;
23242;SDS011;11790;49.578;11.214;2023-03-24T07:28:08;5.43;;;3.50;;
23242;SDS011;11790;49.578;11.214;2023-03-24T07:33:08;4.82;;;3.20;;
23242;SDS011;11790;49.578;11.214;2023-03-24T07:38:11;3.80;;;2.70;;
23242;SDS011;11790;49.578;11.214;2023-03-24T07:43:11;3.83;;;2.65;;
23242;SDS011;11790;49.578;11.214;2023-03-24T07:48:12;3.00;;;2.28;;
23242;SDS011;11790;49.578;11.214;2023-03-24T07:53:12;3.28;;;2.25;;
23242;SDS011;11790;49.578;11.214;2023-03-24T07:58:13;3.17;;;2.28;;
23242;SDS011;11790;49.578;11.214;2023-03-24T08:03:14;2.58;;;1.90;;
23242;SDS011;11790;49.578;11.214;2023-03-24T08:08:14;3.15;;;2.03;;
23242;SDS011;11790;49.578;11.214;2023-03-24T08:13:15;6.07;;;2.25;;
23242;SDS011;11790;49.578;11.214;2023-03-24T08:18:16;2.95;;;2.05;;
23242;SDS011;11790;49.578;11.214;2023-03-24T08:23:16;2.30;;;1.70;;
23242;SDS011;11790;49.578;11.214;2023-03-24T08:28:19;2.30;;;1.63;;
23242;SDS011;11790;49.578;11.214;2023-03-24T08:33:19;2.78;;;1.70;;
23242;SDS011;11790;49.578;11.214;2023-03-24T08:38:19;2.95;;;1.75;;
23242;SDS011;11790;49.578;11.214;2023-03-24T08:43:22;2.50;;;1.77;;
23242;SDS011;11790;49.578;11.214;2023-03-24T08:48:22;4.00;;;1.92;;
23242;SDS011;11790;49.578;11.214;2023-03-24T08:53:22;1.87;;;1.60;;
23242;SDS011;11790;49.578;11.214;2023-03-24T08:58:24;5.22;;;1.65;;
23242;SDS011;11790;49.578;11.214;2023-03-24T09:03:24;3.63;;;1.75;;
23242;SDS011;11790;49.578;11.214;2023-03-24T09:08:26;2.00;;;1.58;;
23242;SDS011;11790;49.578;11.214;2023-03-24T09:13:26;2.80;;;2.03;;
23242;SDS011;11790;49.578;11.214;2023-03-24T09:18:26;4.43;;;1.70;;
23242;SDS011;11790;49.578;11.214;2023-03-24T09:23:27;2.42;;;1.55;;
23242;SDS011;11790;49.578;11.214;2023-03-24T09:28:28;3.33;;;1.98;;
23242;SDS011;11790;49.578;11.214;2023-03-24T09:33:28;3.00;;;1.85;;
23242;SDS011;11790;49.578;11.214;2023-03-24T09:38:35;4.72;;;2.42;;
23242;SDS011;11790;49.578;11.214;2023-03-24T09:43:39;3.58;;;2.40;;
23242;SDS011;11790;49.578;11.214;2023-03-24T09:48:42;7.28;;;2.60;;
23242;SDS011;11790;49.578;11.214;2023-03-24T09:59:03;3.25;;;2.25;;
23242;SDS011;11790;49.578;11.214;2023-03-24T10:04:06;3.35;;;2.30;;
23242;SDS011;11790;49.578;11.214;2023-03-24T10:09:23;5.07;;;2.42;;
23242;SDS011;11790;49.578;11.214;2023-03-24T10:19:36;2.97;;;2.20;;
23242;SDS011;11790;49.578;11.214;2023-03-24T10:29:38;3.35;;;2.50;;
23242;SDS011;11790;49.578;11.214;2023-03-24T10:34:39;4.25;;;2.60;;
23242;SDS011;11790;49.578;11.214;2023-03-24T10:39:41;5.03;;;2.85;;
23242;SDS011;11790;49.578;11.214;2023-03-24T10:44:42;3.47;;;2.42;;
23242;SDS011;11790;49.578;11.214;2023-03-24T10:49:58;4.10;;;2.65;;
23242;SDS011;11790;49.578;11.214;2023-03-24T10:55:03;4.38;;;2.20;;
23242;SDS011;11790;49.578;11.214;2023-03-24T11:00:06;2.72;;;1.98;;
23242;SDS011;11790;49.578;11.214;2023-03-24T11:15:15;2.95;;;2.20;;
23242;SDS011;11790;49.578;11.214;2023-03-24T11:25:16;2.80;;;2.13;;
23242;SDS011;11790;49.578;11.214;2023-03-24T11:30:17;3.47;;;1.98;;
23242;SDS011;11790;49.578;11.214;2023-03-24T11:35:17;3.97;;;1.85;;
23242;SDS011;11790;49.578;11.214;2023-03-24T11:40:21;4.67;;;2.00;;
23242;SDS011;11790;49.578;11.214;2023-03-24T11:50:32;3.55;;;1.67;;
23242;SDS011;11790;49.578;11.214;2023-03-24T11:55:34;2.30;;;1.80;;
23242;SDS011;11790;49.578;11.214;2023-03-24T12:00:40;2.83;;;1.80;;
23242;SDS011;11790;49.578;11.214;2023-03-24T12:05:41;3.05;;;2.17;;
23242;SDS011;11790;49.578;11.214;2023-03-24T12:42:10;4.07;;;2.78;;
23242;SDS011;11790;49.578;11.214;2023-03-24T12:57:31;2.75;;;1.98;;
23242;SDS011;11790;49.578;11.214;2023-03-24T13:03:17;1.70;;;1.52;;
23242;SDS011;11790;49.578;11.214;2023-03-24T13:13:35;3.00;;;1.80;;
23242;SDS011;11790;49.578;11.214;2023-03-24T13:18:38;9.20;;;1.95;;
23242;SDS011;11790;49.578;11.214;2023-03-24T13:34:31;2.80;;;1.25;;
23242;SDS011;11790;49.578;11.214;2023-03-24T13:39:33;3.92;;;1.35;;
23242;SDS011;11790;49.578;11.214;2023-03-24T13:44:36;3.15;;;1.58;;
23242;SDS011;11790;49.578;11.214;2023-03-24T13:49:38;2.28;;;1.48;;
23242;SDS011;11790;49.578;11.214;2023-03-24T13:54:39;3.88;;;1.67;;
23242;SDS011;11790;49.578;11.214;2023-03-24T13:59:56;1.42;;;1.33;;
23242;SDS011;11790;49.578;11.214;2023-03-24T14:05:05;4.07;;;1.83;;
23242;SDS011;11790;49.578;11.214;2023-03-24T14:15:16;3.92;;;1.88;;
23242;SDS011;11790;49.578;11.214;2023-03-24T14:20:24;4.40;;;2.05;;
23242;SDS011;11790;49.578;11.214;2023-03-24T14:25:28;3.42;;;2.28;;
23242;SDS011;11790;49.578;11.214;2023-03-24T14:30:29;3.63;;;2.30;;
23242;SDS011;11790;49.578;11.214;2023-03-24T14:35:35;1.67;;;1.10;;
23242;SDS011;11790;49.578;11.214;2023-03-24T14:40:39;2.28;;;0.82;;
23242;SDS011;11790;49.578;11.214;2023-03-24T14:45:49;1.05;;;0.65;;
23242;SDS011;11790;49.578;11.214;2023-03-24T14:50:51;1.92;;;0.70;;
23242;SDS011;11790;49.578;11.214;2023-03-24T14:55:52;1.27;;;0.77;;
23242;SDS011;11790;49.578;11.214;2023-03-24T15:00:53;1.60;;;1.00;;
23242;SDS011;11790;49.578;11.214;2023-03-24T15:06:02;4.95;;;0.98;;
23242;SDS011;11790;49.578;11.214;2023-03-24T15:11:03;2.50;;;1.42;;
23242;SDS011;11790;49.578;11.214;2023-03-24T15:21:14;61.08;;;3.67;;
23242;SDS011;11790;49.578;11.214;2023-03-24T15:26:15;3.03;;;1.70;;
23242;SDS011;11790;49.578;11.214;2023-03-24T15:31:15;3.80;;;1.90;;
23242;SDS011;11790;49.578;11.214;2023-03-24T15:36:19;3.45;;;1.70;;
23242;SDS011;11790;49.578;11.214;2023-03-24T15:41:20;2.75;;;1.45;;
23242;SDS011;11790;49.578;11.214;2023-03-24T15:46:23;3.22;;;1.40;;
23242;SDS011;11790;49.578;11.214;2023-03-24T15:57:00;3.90;;;1.70;;
23242;SDS011;11790;49.578;11.214;2023-03-24T16:02:08;4.63;;;1.80;;
23242;SDS011;11790;49.578;11.214;2023-03-24T16:07:19;5.15;;;1.75;;
23242;SDS011;11790;49.578;11.214;2023-03-24T16:12:22;4.60;;;1.58;;
23242;SDS011;11790;49.578;11.214;2023-03-24T16:17:22;1.92;;;1.48;;
23242;SDS011;11790;49.578;11.214;2023-03-24T16:22:23;3.85;;;1.55;;
23242;SDS011;11790;49.578;11.214;2023-03-24T16:27:23;3.58;;;1.75;;
23242;SDS011;11790;49.578;11.214;2023-03-24T16:32:23;3.60;;;1.70;;
23242;SDS011;11790;49.578;11.214;2023-03-24T16:37:23;5.70;;;2.10;;
23242;SDS011;11790;49.578;11.214;2023-03-24T16:42:23;7.28;;;3.10;;
23242;SDS011;11790;49.578;11.214;2023-03-24T16:47:24;6.22;;;3.00;;
23242;SDS011;11790;49.578;11.214;2023-03-24T16:52:24;8.18;;;2.25;;
23242;SDS011;11790;49.578;11.214;2023-03-24T16:57:24;4.30;;;2.07;;
23242;SDS011;11790;49.578;11.214;2023-03-24T17:02:24;4.82;;;2.40;;
23242;SDS011;11790;49.578;11.214;2023-03-24T17:07:24;12.98;;;3.08;;
23242;SDS011;11790;49.578;11.214;2023-03-24T17:12:25;9.45;;;2.42;;
23242;SDS011;11790;49.578;11.214;2023-03-24T17:17:26;4.55;;;2.25;;
23242;SDS011;11790;49.578;11.214;2023-03-24T17:22:26;6.70;;;2.00;;
23242;SDS011;11790;49.578;11.214;2023-03-24T17:27:27;2.90;;;1.70;;
23242;SDS011;11790;49.578;11.214;2023-03-24T17:32:27;1.75;;;1.40;;
23242;SDS011;11790;49.578;11.214;2023-03-24T17:37:29;5.50;;;1.67;;
23242;SDS011;11790;49.578;11.214;2023-03-24T17:42:29;6.97;;;2.70;;
23242;SDS011;11790;49.578;11.214;2023-03-24T17:47:29;7.00;;;3.40;;
23242;SDS011;11790;49.578;11.214;2023-03-24T17:52:30;6.85;;;2.00;;
23242;SDS011;11790;49.578;11.214;2023-03-24T17:57:30;5.82;;;2.03;;
23242;SDS011;11790;49.578;11.214;2023-03-24T18:02:31;7.25;;;2.40;;
23242;SDS011;11790;49.578;11.214;2023-03-24T18:07:32;6.15;;;2.78;;
23242;SDS011;11790;49.578;11.214;2023-03-24T18:12:32;7.60;;;2.60;;
23242;SDS011;11790;49.578;11.214;2023-03-24T18:17:33;4.95;;;2.35;;
23242;SDS011;11790;49.578;11.214;2023-03-24T18:22:33;13.07;;;4.30;;
23242;SDS011;11790;49.578;11.214;2023-03-24T18:27:33;6.38;;;4.10;;
23242;SDS011;11790;49.578;11.214;2023-03-24T18:32:33;8.45;;;4.55;;
23242;SDS011;11790;49.578;11.214;2023-03-24T18:37:34;9.73;;;4.63;;
23242;SDS011;11790;49.578;11.214;2023-03-24T18:42:35;8.75;;;4.25;;
23242;SDS011;11790;49.578;11.214;2023-03-24T18:47:35;9.77;;;4.30;;
23242;SDS011;11790;49.578;11.214;2023-03-24T18:52:36;7.85;;;4.35;;
23242;SDS011;11790;49.578;11.214;2023-03-24T18:57:36;8.57;;;4.43;;
23242;SDS011;11790;49.578;11.214;2023-03-24T19:02:36;7.13;;;3.75;;
23242;SDS011;11790;49.578;11.214;2023-03-24T19:07:36;9.20;;;4.35;;
23242;SDS011;11790;49.578;11.214;2023-03-24T19:12:36;9.43;;;4.65;;
23242;SDS011;11790;49.578;11.214;2023-03-24T19:17:36;8.25;;;4.63;;
23242;SDS011;11790;49.578;11.214;2023-03-24T19:22:37;9.07;;;5.00;;
23242;SDS011;11790;49.578;11.214;2023-03-24T19:27:39;10.38;;;6.00;;
23242;SDS011;11790;49.578;11.214;2023-03-24T19:32:39;10.88;;;6.20;;
23242;SDS011;11790;49.578;11.214;2023-03-24T19:37:39;10.95;;;5.95;;
23242;SDS011;11790;49.578;11.214;2023-03-24T19:42:40;12.85;;;5.90;;
23242;SDS011;11790;49.578;11.214;2023-03-24T19:47:41;15.45;;;6.88;;
23242;SDS011;11790;49.578;11.214;2023-03-24T19:52:42;12.95;;;7.68;;
23242;SDS011;11790;49.578;11.214;2023-03-24T19:57:43;17.02;;;8.77;;
23242;SDS011;11790;49.578;11.214;2023-03-24T20:02:43;17.75;;;7.93;;
23242;SDS011;11790;49.578;11.214;2023-03-24T20:07:43;18.00;;;7.93;;
23242;SDS011;11790;49.578;11.214;2023-03-24T20:12:44;20.83;;;10.23;;
23242;SDS011;11790;49.578;11.214;2023-03-24T20:17:44;26.83;;;11.43;;
23242;SDS011;11790;49.578;11.214;2023-03-24T20:22:44;26.77;;;12.52;;
23242;SDS011;11790;49.578;11.214;2023-03-24T20:27:45;30.60;;;14.52;;
23242;SDS011;11790;49.578;11.214;2023-03-24T20:32:46;20.83;;;12.88;;
23242;SDS011;11790;49.578;11.214;2023-03-24T20:37:47;23.35;;;12.98;;
23242;SDS011;11790;49.578;11.214;2023-03-24T20:42:47;16.58;;;10.45;;
23242;SDS011;11790;49.578;11.214;2023-03-24T20:47:47;19.60;;;10.90;;
23242;SDS011;11790;49.578;11.214;2023-03-24T20:52:47;19.02;;;11.13;;
23242;SDS011;11790;49.578;11.214;2023-03-24T20:57:48;19.52;;;10.25;;
23242;SDS011;11790;49.578;11.214;2023-03-24T21:02:48;23.73;;;9.50;;
23242;SDS011;11790;49.578;11.214;2023-03-24T21:07:48;13.02;;;8.63;;
23242;SDS011;11790;49.578;11.214;2023-03-24T21:12:49;17.80;;;8.80;;
23242;SDS011;11790;49.578;11.214;2023-03-24T21:17:49;13.07;;;7.78;;
23242;SDS011;11790;49.578;11.214;2023-03-24T21:22:51;13.82;;;8.18;;
23242;SDS011;11790;49.578;11.214;2023-03-24T21:27:55;12.45;;;7.00;;
23242;SDS011;11790;49.578;11.214;2023-03-24T21:32:55;14.25;;;7.57;;
23242;SDS011;11790;49.578;11.214;2023-03-24T21:37:56;12.82;;;6.18;;
23242;SDS011;11790;49.578;11.214;2023-03-24T21:42:56;11.00;;;5.28;;
23242;SDS011;11790;49.578;11.214;2023-03-24T21:48:03;10.15;;;5.15;;
23242;SDS011;11790;49.578;11.214;2023-03-24T21:53:04;8.02;;;4.15;;
23242;SDS011;11790;49.578;11.214;2023-03-24T21:58:14;6.40;;;4.15;;
23242;SDS011;11790;49.578;11.214;2023-03-24T22:03:14;7.28;;;4.50;;
23242;SDS011;11790;49.578;11.214;2023-03-24T22:08:15;7.57;;;4.32;;
23242;SDS011;11790;49.578;11.214;2023-03-24T22:13:21;8.77;;;4.78;;
23242;SDS011;11790;49.578;11.214;2023-03-24T22:18:22;9.05;;;5.20;;
23242;SDS011;11790;49.578;11.214;2023-03-24T22:23:22;7.88;;;4.82;;
23242;SDS011;11790;49.578;11.214;2023-03-24T22:28:22;11.02;;;4.57;;
23242;SDS011;11790;49.578;11.214;2023-03-24T22:33:22;6.30;;;4.38;;
23242;SDS011;11790;49.578;11.214;2023-03-24T22:38:23;6.32;;;3.80;;
23242;SDS011;11790;49.578;11.214;2023-03-24T22:43:24;5.82;;;3.83;;
23242;SDS011;11790;49.578;11.214;2023-03-24T22:48:25;6.22;;;4.18;;
23242;SDS011;11790;49.578;11.214;2023-03-24T22:53:25;7.00;;;4.07;;
23242;SDS011;11790;49.578;11.214;2023-03-24T22:58:25;7.32;;;3.85;;
23242;SDS011;11790;49.578;11.214;2023-03-24T23:03:25;8.43;;;4.07;;
23242;SDS011;11790;49.578;11.214;2023-03-24T23:08:26;5.97;;;3.88;;
23242;SDS011;11790;49.578;11.214;2023-03-24T23:13:28;5.65;;;3.45;;
23242;SDS011;11790;49.578;11.214;2023-03-24T23:18:29;7.03;;;3.15;;
23242;SDS011;11790;49.578;11.214;2023-03-24T23:23:30;4.45;;;2.90;;
23242;SDS011;11790;49.578;11.214;2023-03-24T23:28:31;9.02;;;3.25;;
23242;SDS011;11790;49.578;11.214;2023-03-24T23:33:31;5.03;;;2.70;;
23242;SDS011;11790;49.578;11.214;2023-03-24T23:38:31;6.18;;;2.53;;
23242;SDS011;11790;49.578;11.214;2023-03-24T23:43:32;4.07;;;1.75;;
23242;SDS011;11790;49.578;11.214;2023-03-24T23:48:32;2.83;;;1.73;;
23242;SDS011;11790;49.578;11.214;2023-03-24T23:53:33;2.80;;;1.75;;
23242;SDS011;11790;49.578;11.214;2023-03-24T23:58:34;2.40;;;1.50;;
